sensor_id;sensor_type;location;lat;lon;timestamp;temperature;humidity
71142;DHT22;58808;59.366;17.970;2023-10-08T00:01:29;4.70;90.60
71142;DHT22;58808;59.366;17.970;2023-10-08T00:03:58;4.70;90.70
71142;DHT22;58808;59.366;17.970;2023-10-08T00:06:26;4.70;90.90
71142;DHT22;58808;59.366;17.970;2023-10-08T00:08:52;4.70;91.10
71142;DHT22;58808;59.366;17.970;2023-10-08T00:11:25;4.60;91.00
71142;DHT22;58808;59.366;17.970;2023-10-08T00:13:51;4.60;91.00
71142;DHT22;58808;59.366;17.970;2023-10-08T00:16:21;4.70;91.20
71142;DHT22;58808;59.366;17.970;2023-10-08T00:18:47;4.60;91.20
71142;DHT22;58808;59.366;17.970;2023-10-08T00:21:21;4.70;91.20
71142;DHT22;58808;59.366;17.970;2023-10-08T00:23:53;4.60;91.10
71142;DHT22;58808;59.366;17.970;2023-10-08T00:26:23;4.60;91.20
71142;DHT22;58808;59.366;17.970;2023-10-08T00:29:00;4.70;91.20
71142;DHT22;58808;59.366;17.970;2023-10-08T00:31:27;4.70;91.20
71142;DHT22;58808;59.366;17.970;2023-10-08T00:33:58;4.60;91.10
71142;DHT22;58808;59.366;17.970;2023-10-08T00:36:24;4.60;91.20
71142;DHT22;58808;59.366;17.970;2023-10-08T00:38:50;4.60;91.40
71142;DHT22;58808;59.366;17.970;2023-10-08T00:41:18;4.60;91.30
71142;DHT22;58808;59.366;17.970;2023-10-08T00:43:47;4.60;91.30
71142;DHT22;58808;59.366;17.970;2023-10-08T00:46:15;4.60;91.40
71142;DHT22;58808;59.366;17.970;2023-10-08T00:48:53;4.60;91.60
71142;DHT22;58808;59.366;17.970;2023-10-08T00:51:23;4.50;91.40
71142;DHT22;58808;59.366;17.970;2023-10-08T00:53:54;4.60;91.50
71142;DHT22;58808;59.366;17.970;2023-10-08T00:56:25;4.60;91.40
71142;DHT22;58808;59.366;17.970;2023-10-08T00:59:09;4.50;91.60
71142;DHT22;58808;59.366;17.970;2023-10-08T01:01:39;4.60;91.70
71142;DHT22;58808;59.366;17.970;2023-10-08T01:04:05;4.60;91.70
71142;DHT22;58808;59.366;17.970;2023-10-08T01:06:38;4.50;91.70
71142;DHT22;58808;59.366;17.970;2023-10-08T01:09:05;4.50;91.70
71142;DHT22;58808;59.366;17.970;2023-10-08T01:11:44;4.50;91.60
71142;DHT22;58808;59.366;17.970;2023-10-08T01:14:16;4.50;91.70
71142;DHT22;58808;59.366;17.970;2023-10-08T01:16:47;4.50;91.80
71142;DHT22;58808;59.366;17.970;2023-10-08T01:19:18;4.40;91.80
71142;DHT22;58808;59.366;17.970;2023-10-08T01:21:45;4.40;92.10
71142;DHT22;58808;59.366;17.970;2023-10-08T01:24:11;4.40;91.90
71142;DHT22;58808;59.366;17.970;2023-10-08T01:26:42;4.40;91.90
71142;DHT22;58808;59.366;17.970;2023-10-08T01:29:12;4.40;92.00
71142;DHT22;58808;59.366;17.970;2023-10-08T01:31:47;4.40;92.00
71142;DHT22;58808;59.366;17.970;2023-10-08T01:34:18;4.40;92.40
71142;DHT22;58808;59.366;17.970;2023-10-08T01:36:45;4.40;92.20
71142;DHT22;58808;59.366;17.970;2023-10-08T01:39:11;4.40;92.10
71142;DHT22;58808;59.366;17.970;2023-10-08T01:41:45;4.40;92.20
71142;DHT22;58808;59.366;17.970;2023-10-08T01:44:12;4.40;92.20
71142;DHT22;58808;59.366;17.970;2023-10-08T01:46:38;4.40;92.00
71142;DHT22;58808;59.366;17.970;2023-10-08T01:49:07;4.40;92.20
71142;DHT22;58808;59.366;17.970;2023-10-08T01:51:55;4.40;92.30
71142;DHT22;58808;59.366;17.970;2023-10-08T01:54:21;4.40;92.30
71142;DHT22;58808;59.366;17.970;2023-10-08T01:56:47;4.40;92.50
71142;DHT22;58808;59.366;17.970;2023-10-08T01:59:15;4.40;92.60
71142;DHT22;58808;59.366;17.970;2023-10-08T02:01:42;4.40;92.70
71142;DHT22;58808;59.366;17.970;2023-10-08T02:04:09;4.40;92.80
71142;DHT22;58808;59.366;17.970;2023-10-08T02:06:37;4.40;93.00
71142;DHT22;58808;59.366;17.970;2023-10-08T02:09:05;4.30;93.00
71142;DHT22;58808;59.366;17.970;2023-10-08T02:11:46;4.40;92.90
71142;DHT22;58808;59.366;17.970;2023-10-08T02:14:15;4.40;93.10
71142;DHT22;58808;59.366;17.970;2023-10-08T02:16:45;4.30;93.10
71142;DHT22;58808;59.366;17.970;2023-10-08T02:19:11;4.40;93.30
71142;DHT22;58808;59.366;17.970;2023-10-08T02:21:38;4.30;93.40
71142;DHT22;58808;59.366;17.970;2023-10-08T02:24:06;4.30;93.50
71142;DHT22;58808;59.366;17.970;2023-10-08T02:26:36;4.30;93.70
71142;DHT22;58808;59.366;17.970;2023-10-08T02:29:03;4.30;93.70
71142;DHT22;58808;59.366;17.970;2023-10-08T02:31:39;4.20;93.70
71142;DHT22;58808;59.366;17.970;2023-10-08T02:34:08;4.20;93.90
71142;DHT22;58808;59.366;17.970;2023-10-08T02:36:37;4.30;94.00
71142;DHT22;58808;59.366;17.970;2023-10-08T02:39:04;4.20;93.90
71142;DHT22;58808;59.366;17.970;2023-10-08T02:41:42;4.20;94.10
71142;DHT22;58808;59.366;17.970;2023-10-08T02:44:08;4.20;94.00
71142;DHT22;58808;59.366;17.970;2023-10-08T02:46:45;4.20;94.00
71142;DHT22;58808;59.366;17.970;2023-10-08T02:49:16;4.20;94.00
71142;DHT22;58808;59.366;17.970;2023-10-08T02:51:53;4.20;94.00
71142;DHT22;58808;59.366;17.970;2023-10-08T02:54:20;4.30;93.90
71142;DHT22;58808;59.366;17.970;2023-10-08T02:56:50;4.30;94.30
71142;DHT22;58808;59.366;17.970;2023-10-08T02:59:28;4.30;93.80
71142;DHT22;58808;59.366;17.970;2023-10-08T03:01:54;4.30;93.80
71142;DHT22;58808;59.366;17.970;2023-10-08T03:04:22;4.30;93.90
71142;DHT22;58808;59.366;17.970;2023-10-08T03:06:49;4.30;94.00
71142;DHT22;58808;59.366;17.970;2023-10-08T03:09:19;4.30;94.10
71142;DHT22;58808;59.366;17.970;2023-10-08T03:11:57;4.30;94.20
71142;DHT22;58808;59.366;17.970;2023-10-08T03:14:24;4.20;94.40
71142;DHT22;58808;59.366;17.970;2023-10-08T03:16:53;4.30;94.40
71142;DHT22;58808;59.366;17.970;2023-10-08T03:19:23;4.30;94.50
71142;DHT22;58808;59.366;17.970;2023-10-08T03:21:50;4.30;94.40
71142;DHT22;58808;59.366;17.970;2023-10-08T03:24:19;4.20;94.60
71142;DHT22;58808;59.366;17.970;2023-10-08T03:27:00;4.20;94.70
71142;DHT22;58808;59.366;17.970;2023-10-08T03:29:34;4.20;94.70
71142;DHT22;58808;59.366;17.970;2023-10-08T03:32:07;4.30;94.70
71142;DHT22;58808;59.366;17.970;2023-10-08T03:34:38;4.30;94.70
71142;DHT22;58808;59.366;17.970;2023-10-08T03:37:08;4.30;94.90
71142;DHT22;58808;59.366;17.970;2023-10-08T03:39:34;4.30;94.90
71142;DHT22;58808;59.366;17.970;2023-10-08T03:42:27;4.30;94.90
71142;DHT22;58808;59.366;17.970;2023-10-08T03:44:59;4.20;95.00
71142;DHT22;58808;59.366;17.970;2023-10-08T03:47:36;4.20;95.10
71142;DHT22;58808;59.366;17.970;2023-10-08T03:50:05;4.20;95.20
71142;DHT22;58808;59.366;17.970;2023-10-08T03:52:31;4.20;95.50
71142;DHT22;58808;59.366;17.970;2023-10-08T03:54:57;4.20;95.20
71142;DHT22;58808;59.366;17.970;2023-10-08T03:57:41;4.20;95.30
71142;DHT22;58808;59.366;17.970;2023-10-08T04:00:11;4.20;95.60
71142;DHT22;58808;59.366;17.970;2023-10-08T04:02:47;4.20;95.40
71142;DHT22;58808;59.366;17.970;2023-10-08T04:05:23;4.20;95.50
71142;DHT22;58808;59.366;17.970;2023-10-08T04:07:57;4.20;95.50
71142;DHT22;58808;59.366;17.970;2023-10-08T04:10:29;4.20;95.60
71142;DHT22;58808;59.366;17.970;2023-10-08T04:13:07;4.20;95.70
71142;DHT22;58808;59.366;17.970;2023-10-08T04:15:40;4.10;95.50
71142;DHT22;58808;59.366;17.970;2023-10-08T04:18:07;4.10;95.70
71142;DHT22;58808;59.366;17.970;2023-10-08T04:20:32;4.20;95.70
71142;DHT22;58808;59.366;17.970;2023-10-08T04:23:03;4.10;95.80
71142;DHT22;58808;59.366;17.970;2023-10-08T04:25:31;4.20;95.90
71142;DHT22;58808;59.366;17.970;2023-10-08T04:27:58;4.10;95.80
71142;DHT22;58808;59.366;17.970;2023-10-08T04:30:32;4.10;95.80
71142;DHT22;58808;59.366;17.970;2023-10-08T04:33:00;4.10;96.00
71142;DHT22;58808;59.366;17.970;2023-10-08T04:35:33;4.10;95.80
71142;DHT22;58808;59.366;17.970;2023-10-08T04:38:04;4.10;95.70
71142;DHT22;58808;59.366;17.970;2023-10-08T04:40:35;4.20;95.80
71142;DHT22;58808;59.366;17.970;2023-10-08T04:43:08;4.20;95.90
71142;DHT22;58808;59.366;17.970;2023-10-08T04:45:37;4.10;96.00
71142;DHT22;58808;59.366;17.970;2023-10-08T04:48:04;4.20;96.20
71142;DHT22;58808;59.366;17.970;2023-10-08T04:50:38;4.20;96.20
71142;DHT22;58808;59.366;17.970;2023-10-08T04:53:04;4.10;96.20
71142;DHT22;58808;59.366;17.970;2023-10-08T04:55:36;4.20;96.40
71142;DHT22;58808;59.366;17.970;2023-10-08T04:58:07;4.20;96.40
71142;DHT22;58808;59.366;17.970;2023-10-08T05:00:45;4.10;96.30
71142;DHT22;58808;59.366;17.970;2023-10-08T05:03:20;4.10;96.50
71142;DHT22;58808;59.366;17.970;2023-10-08T05:05:48;4.10;96.30
71142;DHT22;58808;59.366;17.970;2023-10-08T05:08:33;4.10;96.50
71142;DHT22;58808;59.366;17.970;2023-10-08T05:11:10;4.10;96.60
71142;DHT22;58808;59.366;17.970;2023-10-08T05:14:02;4.10;96.50
71142;DHT22;58808;59.366;17.970;2023-10-08T05:16:32;4.10;96.50
71142;DHT22;58808;59.366;17.970;2023-10-08T05:19:26;4.10;96.40
71142;DHT22;58808;59.366;17.970;2023-10-08T05:22:14;4.10;96.60
71142;DHT22;58808;59.366;17.970;2023-10-08T05:24:52;4.10;96.80
71142;DHT22;58808;59.366;17.970;2023-10-08T05:27:45;4.00;96.80
71142;DHT22;58808;59.366;17.970;2023-10-08T05:30:20;4.10;97.00
71142;DHT22;58808;59.366;17.970;2023-10-08T05:33:06;4.10;97.00
71142;DHT22;58808;59.366;17.970;2023-10-08T05:35:41;4.10;97.00
71142;DHT22;58808;59.366;17.970;2023-10-08T05:38:12;4.10;97.10
71142;DHT22;58808;59.366;17.970;2023-10-08T05:40:57;4.10;97.00
71142;DHT22;58808;59.366;17.970;2023-10-08T05:43:24;4.10;96.90
71142;DHT22;58808;59.366;17.970;2023-10-08T05:46:05;4.10;96.80
71142;DHT22;58808;59.366;17.970;2023-10-08T05:48:54;4.10;96.80
71142;DHT22;58808;59.366;17.970;2023-10-08T05:51:41;4.10;96.80
71142;DHT22;58808;59.366;17.970;2023-10-08T05:56:57;4.20;97.10
71142;DHT22;58808;59.366;17.970;2023-10-08T05:59:42;4.20;97.00
71142;DHT22;58808;59.366;17.970;2023-10-08T06:05:00;4.20;97.30
71142;DHT22;58808;59.366;17.970;2023-10-08T06:10:28;4.20;97.50
71142;DHT22;58808;59.366;17.970;2023-10-08T06:13:10;4.30;97.30
71142;DHT22;58808;59.366;17.970;2023-10-08T06:18:12;4.30;97.00
71142;DHT22;58808;59.366;17.970;2023-10-08T06:20:40;4.30;97.00
71142;DHT22;58808;59.366;17.970;2023-10-08T06:23:18;4.30;97.00
71142;DHT22;58808;59.366;17.970;2023-10-08T06:25:44;4.30;96.90
71142;DHT22;58808;59.366;17.970;2023-10-08T06:28:17;4.40;97.10
71142;DHT22;58808;59.366;17.970;2023-10-08T06:30:50;4.40;97.10
71142;DHT22;58808;59.366;17.970;2023-10-08T06:33:28;4.40;96.80
71142;DHT22;58808;59.366;17.970;2023-10-08T06:35:59;4.40;97.00
71142;DHT22;58808;59.366;17.970;2023-10-08T06:38:32;4.40;97.10
71142;DHT22;58808;59.366;17.970;2023-10-08T06:41:03;4.50;97.10
71142;DHT22;58808;59.366;17.970;2023-10-08T06:43:35;4.50;97.20
71142;DHT22;58808;59.366;17.970;2023-10-08T06:46:02;4.50;97.30
71142;DHT22;58808;59.366;17.970;2023-10-08T06:48:29;4.50;97.10
71142;DHT22;58808;59.366;17.970;2023-10-08T06:50:55;4.50;97.00
71142;DHT22;58808;59.366;17.970;2023-10-08T06:53:32;4.60;96.90
71142;DHT22;58808;59.366;17.970;2023-10-08T06:55:57;4.60;97.10
71142;DHT22;58808;59.366;17.970;2023-10-08T06:58:26;4.60;97.10
71142;DHT22;58808;59.366;17.970;2023-10-08T07:00:52;4.60;97.00
71142;DHT22;58808;59.366;17.970;2023-10-08T07:03:20;4.70;97.10
71142;DHT22;58808;59.366;17.970;2023-10-08T07:05:48;4.70;97.20
71142;DHT22;58808;59.366;17.970;2023-10-08T07:08:33;4.70;97.20
71142;DHT22;58808;59.366;17.970;2023-10-08T07:11:02;4.80;97.30
71142;DHT22;58808;59.366;17.970;2023-10-08T07:13:32;4.90;97.00
71142;DHT22;58808;59.366;17.970;2023-10-08T07:15:58;4.90;96.70
71142;DHT22;58808;59.366;17.970;2023-10-08T07:18:29;4.90;96.80
71142;DHT22;58808;59.366;17.970;2023-10-08T07:20:57;5.00;96.90
71142;DHT22;58808;59.366;17.970;2023-10-08T07:23:27;5.00;96.70
71142;DHT22;58808;59.366;17.970;2023-10-08T07:25:59;5.00;96.90
71142;DHT22;58808;59.366;17.970;2023-10-08T07:28:37;5.10;96.80
71142;DHT22;58808;59.366;17.970;2023-10-08T07:31:06;5.10;96.70
71142;DHT22;58808;59.366;17.970;2023-10-08T07:33:45;5.20;96.60
71142;DHT22;58808;59.366;17.970;2023-10-08T07:36:11;5.20;96.50
71142;DHT22;58808;59.366;17.970;2023-10-08T07:38:41;5.30;96.70
71142;DHT22;58808;59.366;17.970;2023-10-08T07:41:11;5.30;96.50
71142;DHT22;58808;59.366;17.970;2023-10-08T07:43:43;5.40;96.60
71142;DHT22;58808;59.366;17.970;2023-10-08T07:46:10;5.40;96.50
71142;DHT22;58808;59.366;17.970;2023-10-08T07:48:36;5.50;96.50
71142;DHT22;58808;59.366;17.970;2023-10-08T07:51:08;5.50;96.10
71142;DHT22;58808;59.366;17.970;2023-10-08T07:53:33;5.60;96.10
71142;DHT22;58808;59.366;17.970;2023-10-08T07:56:07;5.60;96.00
71142;DHT22;58808;59.366;17.970;2023-10-08T07:58:34;5.70;96.00
71142;DHT22;58808;59.366;17.970;2023-10-08T08:01:06;5.70;95.70
71142;DHT22;58808;59.366;17.970;2023-10-08T08:03:33;5.80;95.50
71142;DHT22;58808;59.366;17.970;2023-10-08T08:06:00;6.00;95.40
71142;DHT22;58808;59.366;17.970;2023-10-08T08:08:26;6.20;95.40
71142;DHT22;58808;59.366;17.970;2023-10-08T08:10:53;6.40;95.00
71142;DHT22;58808;59.366;17.970;2023-10-08T08:13:28;6.70;94.10
71142;DHT22;58808;59.366;17.970;2023-10-08T08:15:57;6.90;93.30
71142;DHT22;58808;59.366;17.970;2023-10-08T08:18:37;7.00;93.00
71142;DHT22;58808;59.366;17.970;2023-10-08T08:21:03;7.10;93.10
71142;DHT22;58808;59.366;17.970;2023-10-08T08:23:30;7.20;92.80
71142;DHT22;58808;59.366;17.970;2023-10-08T08:25:57;7.20;92.60
71142;DHT22;58808;59.366;17.970;2023-10-08T08:28:37;7.20;92.50
71142;DHT22;58808;59.366;17.970;2023-10-08T08:31:04;7.20;92.10
71142;DHT22;58808;59.366;17.970;2023-10-08T08:33:31;7.20;92.10
71142;DHT22;58808;59.366;17.970;2023-10-08T08:36:16;7.30;91.70
71142;DHT22;58808;59.366;17.970;2023-10-08T08:38:42;7.40;91.20
71142;DHT22;58808;59.366;17.970;2023-10-08T08:41:08;7.40;91.30
71142;DHT22;58808;59.366;17.970;2023-10-08T08:43:38;7.50;90.70
71142;DHT22;58808;59.366;17.970;2023-10-08T08:46:10;7.60;91.10
71142;DHT22;58808;59.366;17.970;2023-10-08T08:48:40;7.70;91.00
71142;DHT22;58808;59.366;17.970;2023-10-08T08:51:06;7.70;90.80
71142;DHT22;58808;59.366;17.970;2023-10-08T08:53:33;7.70;90.10
71142;DHT22;58808;59.366;17.970;2023-10-08T08:56:01;7.70;90.20
71142;DHT22;58808;59.366;17.970;2023-10-08T08:58:33;7.70;89.50
71142;DHT22;58808;59.366;17.970;2023-10-08T09:01:00;7.60;89.70
71142;DHT22;58808;59.366;17.970;2023-10-08T09:03:27;7.60;90.20
71142;DHT22;58808;59.366;17.970;2023-10-08T09:05:59;7.60;90.20
71142;DHT22;58808;59.366;17.970;2023-10-08T09:08:37;7.60;90.80
71142;DHT22;58808;59.366;17.970;2023-10-08T09:11:07;7.60;89.30
71142;DHT22;58808;59.366;17.970;2023-10-08T09:13:34;7.60;90.40
71142;DHT22;58808;59.366;17.970;2023-10-08T09:16:07;7.60;90.70
71142;DHT22;58808;59.366;17.970;2023-10-08T09:18:33;7.80;90.60
71142;DHT22;58808;59.366;17.970;2023-10-08T09:21:10;7.80;89.60
71142;DHT22;58808;59.366;17.970;2023-10-08T09:23:43;7.90;90.00
71142;DHT22;58808;59.366;17.970;2023-10-08T09:26:12;7.90;88.60
71142;DHT22;58808;59.366;17.970;2023-10-08T09:28:45;8.00;89.10
71142;DHT22;58808;59.366;17.970;2023-10-08T09:31:15;8.00;88.00
71142;DHT22;58808;59.366;17.970;2023-10-08T09:33:43;8.10;86.60
71142;DHT22;58808;59.366;17.970;2023-10-08T09:36:18;8.10;88.20
71142;DHT22;58808;59.366;17.970;2023-10-08T09:38:46;8.10;89.20
71142;DHT22;58808;59.366;17.970;2023-10-08T09:41:14;8.20;89.40
71142;DHT22;58808;59.366;17.970;2023-10-08T09:43:41;8.20;86.80
71142;DHT22;58808;59.366;17.970;2023-10-08T09:46:19;8.20;87.00
71142;DHT22;58808;59.366;17.970;2023-10-08T09:48:52;8.30;86.40
71142;DHT22;58808;59.366;17.970;2023-10-08T09:51:20;8.40;85.50
71142;DHT22;58808;59.366;17.970;2023-10-08T09:56:36;8.40;84.90
71142;DHT22;58808;59.366;17.970;2023-10-08T09:59:02;8.50;84.50
71142;DHT22;58808;59.366;17.970;2023-10-08T10:01:29;8.50;84.70
71142;DHT22;58808;59.366;17.970;2023-10-08T10:03:57;8.60;83.80
71142;DHT22;58808;59.366;17.970;2023-10-08T10:06:26;8.70;83.70
71142;DHT22;58808;59.366;17.970;2023-10-08T10:08:52;8.60;81.40
71142;DHT22;58808;59.366;17.970;2023-10-08T10:11:26;8.70;82.30
71142;DHT22;58808;59.366;17.970;2023-10-08T10:13:58;8.80;82.30
71142;DHT22;58808;59.366;17.970;2023-10-08T10:16:27;8.70;82.30
71142;DHT22;58808;59.366;17.970;2023-10-08T10:18:59;8.70;82.00
71142;DHT22;58808;59.366;17.970;2023-10-08T10:23:55;8.90;82.70
71142;DHT22;58808;59.366;17.970;2023-10-08T10:26:27;9.00;83.50
71142;DHT22;58808;59.366;17.970;2023-10-08T10:31:45;9.00;80.70
71142;DHT22;58808;59.366;17.970;2023-10-08T10:34:15;9.10;81.70
71142;DHT22;58808;59.366;17.970;2023-10-08T10:36:42;9.10;80.20
71142;DHT22;58808;59.366;17.970;2023-10-08T10:39:12;9.10;81.00
71142;DHT22;58808;59.366;17.970;2023-10-08T10:42:00;9.20;79.90
71142;DHT22;58808;59.366;17.970;2023-10-08T10:44:33;9.30;79.30
71142;DHT22;58808;59.366;17.970;2023-10-08T10:47:02;9.30;78.20
71142;DHT22;58808;59.366;17.970;2023-10-08T10:49:50;9.30;79.20
71142;DHT22;58808;59.366;17.970;2023-10-08T10:52:16;9.40;80.30
71142;DHT22;58808;59.366;17.970;2023-10-08T10:55:07;9.40;80.90
71142;DHT22;58808;59.366;17.970;2023-10-08T10:57:43;9.40;78.70
71142;DHT22;58808;59.366;17.970;2023-10-08T11:00:10;9.50;77.10
71142;DHT22;58808;59.366;17.970;2023-10-08T11:02:56;9.60;77.90
71142;DHT22;58808;59.366;17.970;2023-10-08T11:05:34;9.60;76.50
71142;DHT22;58808;59.366;17.970;2023-10-08T11:08:05;9.70;74.50
71142;DHT22;58808;59.366;17.970;2023-10-08T11:10:42;9.70;75.50
71142;DHT22;58808;59.366;17.970;2023-10-08T11:13:20;9.80;77.00
71142;DHT22;58808;59.366;17.970;2023-10-08T11:15:49;9.80;76.30
71142;DHT22;58808;59.366;17.970;2023-10-08T11:18:19;9.90;75.00
71142;DHT22;58808;59.366;17.970;2023-10-08T11:20:47;9.90;75.50
71142;DHT22;58808;59.366;17.970;2023-10-08T11:23:35;10.00;74.30
71142;DHT22;58808;59.366;17.970;2023-10-08T11:26:02;10.00;73.60
71142;DHT22;58808;59.366;17.970;2023-10-08T11:28:33;10.00;73.40
71142;DHT22;58808;59.366;17.970;2023-10-08T11:31:01;10.20;74.40
71142;DHT22;58808;59.366;17.970;2023-10-08T11:33:37;10.10;73.70
71142;DHT22;58808;59.366;17.970;2023-10-08T11:36:05;10.10;73.40
71142;DHT22;58808;59.366;17.970;2023-10-08T11:38:54;10.20;72.80
71142;DHT22;58808;59.366;17.970;2023-10-08T11:41:27;10.30;71.80
71142;DHT22;58808;59.366;17.970;2023-10-08T11:43:57;10.20;73.30
71142;DHT22;58808;59.366;17.970;2023-10-08T11:46:31;10.30;72.00
71142;DHT22;58808;59.366;17.970;2023-10-08T11:49:07;10.40;72.00
71142;DHT22;58808;59.366;17.970;2023-10-08T11:51:37;10.50;70.70
71142;DHT22;58808;59.366;17.970;2023-10-08T11:54:05;10.50;71.20
71142;DHT22;58808;59.366;17.970;2023-10-08T11:56:32;10.70;71.90
71142;DHT22;58808;59.366;17.970;2023-10-08T11:59:02;10.80;70.20
71142;DHT22;58808;59.366;17.970;2023-10-08T12:01:31;10.70;69.70
71142;DHT22;58808;59.366;17.970;2023-10-08T12:04:01;10.60;71.60
71142;DHT22;58808;59.366;17.970;2023-10-08T12:06:27;10.70;71.20
71142;DHT22;58808;59.366;17.970;2023-10-08T12:08:56;10.70;71.00
71142;DHT22;58808;59.366;17.970;2023-10-08T12:11:27;10.90;73.60
71142;DHT22;58808;59.366;17.970;2023-10-08T12:14:03;11.10;72.50
71142;DHT22;58808;59.366;17.970;2023-10-08T12:16:29;11.20;69.90
71142;DHT22;58808;59.366;17.970;2023-10-08T12:18:56;11.20;69.10
71142;DHT22;58808;59.366;17.970;2023-10-08T12:21:30;11.20;70.20
71142;DHT22;58808;59.366;17.970;2023-10-08T12:24:00;11.40;68.90
71142;DHT22;58808;59.366;17.970;2023-10-08T12:26:30;11.50;68.50
71142;DHT22;58808;59.366;17.970;2023-10-08T12:28:57;11.40;66.20
71142;DHT22;58808;59.366;17.970;2023-10-08T12:31:23;11.40;66.70
71142;DHT22;58808;59.366;17.970;2023-10-08T12:33:50;11.40;66.30
71142;DHT22;58808;59.366;17.970;2023-10-08T12:36:25;11.40;67.30
71142;DHT22;58808;59.366;17.970;2023-10-08T12:38:52;11.40;66.30
71142;DHT22;58808;59.366;17.970;2023-10-08T12:41:25;11.40;66.10
71142;DHT22;58808;59.366;17.970;2023-10-08T12:43:54;11.40;65.00
71142;DHT22;58808;59.366;17.970;2023-10-08T12:46:20;11.40;65.80
71142;DHT22;58808;59.366;17.970;2023-10-08T12:48:56;11.50;65.90
71142;DHT22;58808;59.366;17.970;2023-10-08T12:51:23;11.60;64.80
71142;DHT22;58808;59.366;17.970;2023-10-08T12:53:50;11.70;64.00
71142;DHT22;58808;59.366;17.970;2023-10-08T12:56:17;11.70;63.70
71142;DHT22;58808;59.366;17.970;2023-10-08T12:58:47;11.60;65.40
71142;DHT22;58808;59.366;17.970;2023-10-08T13:01:19;11.60;63.70
71142;DHT22;58808;59.366;17.970;2023-10-08T13:03:46;11.50;64.00
71142;DHT22;58808;59.366;17.970;2023-10-08T13:06:17;11.60;65.30
71142;DHT22;58808;59.366;17.970;2023-10-08T13:08:54;11.70;64.20
71142;DHT22;58808;59.366;17.970;2023-10-08T13:11:27;11.80;62.30
71142;DHT22;58808;59.366;17.970;2023-10-08T13:13:55;11.80;63.00
71142;DHT22;58808;59.366;17.970;2023-10-08T13:16:27;11.90;63.40
71142;DHT22;58808;59.366;17.970;2023-10-08T13:19:03;11.90;63.80
71142;DHT22;58808;59.366;17.970;2023-10-08T13:21:29;11.90;62.20
71142;DHT22;58808;59.366;17.970;2023-10-08T13:23:55;12.00;63.40
71142;DHT22;58808;59.366;17.970;2023-10-08T13:26:31;12.00;63.50
71142;DHT22;58808;59.366;17.970;2023-10-08T13:29:00;12.00;62.50
71142;DHT22;58808;59.366;17.970;2023-10-08T13:31:27;12.10;63.00
71142;DHT22;58808;59.366;17.970;2023-10-08T13:33:53;12.20;62.80
71142;DHT22;58808;59.366;17.970;2023-10-08T13:36:23;12.20;62.20
71142;DHT22;58808;59.366;17.970;2023-10-08T13:38:49;12.10;62.70
71142;DHT22;58808;59.366;17.970;2023-10-08T13:41:16;12.10;62.20
71142;DHT22;58808;59.366;17.970;2023-10-08T13:43:46;12.00;62.00
71142;DHT22;58808;59.366;17.970;2023-10-08T13:46:18;11.90;62.70
71142;DHT22;58808;59.366;17.970;2023-10-08T13:48:45;11.80;62.60
71142;DHT22;58808;59.366;17.970;2023-10-08T13:51:16;11.70;62.60
71142;DHT22;58808;59.366;17.970;2023-10-08T13:53:55;11.60;61.80
71142;DHT22;58808;59.366;17.970;2023-10-08T13:56:29;11.40;62.80
71142;DHT22;58808;59.366;17.970;2023-10-08T13:58:59;11.40;64.10
71142;DHT22;58808;59.366;17.970;2023-10-08T14:01:41;11.30;64.30
71142;DHT22;58808;59.366;17.970;2023-10-08T14:04:11;11.20;63.90
71142;DHT22;58808;59.366;17.970;2023-10-08T14:06:38;11.20;64.30
71142;DHT22;58808;59.366;17.970;2023-10-08T14:09:06;11.10;64.50
71142;DHT22;58808;59.366;17.970;2023-10-08T14:11:34;11.00;65.00
71142;DHT22;58808;59.366;17.970;2023-10-08T14:14:00;10.90;64.00
71142;DHT22;58808;59.366;17.970;2023-10-08T14:16:36;10.80;64.50
71142;DHT22;58808;59.366;17.970;2023-10-08T14:19:02;10.70;65.10
71142;DHT22;58808;59.366;17.970;2023-10-08T14:21:30;10.60;65.30
71142;DHT22;58808;59.366;17.970;2023-10-08T14:23:59;10.50;65.10
71142;DHT22;58808;59.366;17.970;2023-10-08T14:26:40;10.40;66.20
71142;DHT22;58808;59.366;17.970;2023-10-08T14:29:08;10.40;66.50
71142;DHT22;58808;59.366;17.970;2023-10-08T14:31:36;10.30;66.50
71142;DHT22;58808;59.366;17.970;2023-10-08T14:34:07;10.30;67.60
71142;DHT22;58808;59.366;17.970;2023-10-08T14:36:49;10.30;66.60
71142;DHT22;58808;59.366;17.970;2023-10-08T14:39:34;10.40;66.00
71142;DHT22;58808;59.366;17.970;2023-10-08T14:42:19;10.40;66.50
71142;DHT22;58808;59.366;17.970;2023-10-08T14:45:04;10.40;66.60
71142;DHT22;58808;59.366;17.970;2023-10-08T14:47:37;10.40;66.50
71142;DHT22;58808;59.366;17.970;2023-10-08T14:50:03;10.40;66.90
71142;DHT22;58808;59.366;17.970;2023-10-08T14:52:31;10.20;67.60
71142;DHT22;58808;59.366;17.970;2023-10-08T14:54:56;10.20;67.70
71142;DHT22;58808;59.366;17.970;2023-10-08T14:57:22;10.20;67.90
71142;DHT22;58808;59.366;17.970;2023-10-08T14:59:50;10.20;68.10
71142;DHT22;58808;59.366;17.970;2023-10-08T15:02:17;10.10;67.00
71142;DHT22;58808;59.366;17.970;2023-10-08T15:04:42;10.10;68.40
71142;DHT22;58808;59.366;17.970;2023-10-08T15:07:09;10.00;68.70
71142;DHT22;58808;59.366;17.970;2023-10-08T15:09:43;10.00;69.00
71142;DHT22;58808;59.366;17.970;2023-10-08T15:12:10;9.90;68.90
71142;DHT22;58808;59.366;17.970;2023-10-08T15:14:36;9.80;69.60
71142;DHT22;58808;59.366;17.970;2023-10-08T15:17:04;9.80;69.80
71142;DHT22;58808;59.366;17.970;2023-10-08T15:19:30;9.70;70.50
71142;DHT22;58808;59.366;17.970;2023-10-08T15:21:57;9.70;71.50
71142;DHT22;58808;59.366;17.970;2023-10-08T15:24:24;9.70;70.90
71142;DHT22;58808;59.366;17.970;2023-10-08T15:26:54;9.50;71.80
71142;DHT22;58808;59.366;17.970;2023-10-08T15:29:21;9.50;72.50
71142;DHT22;58808;59.366;17.970;2023-10-08T15:31:48;9.50;72.50
71142;DHT22;58808;59.366;17.970;2023-10-08T15:34:15;9.40;72.80
71142;DHT22;58808;59.366;17.970;2023-10-08T15:36:41;9.40;73.00
71142;DHT22;58808;59.366;17.970;2023-10-08T15:39:07;9.30;73.20
71142;DHT22;58808;59.366;17.970;2023-10-08T15:41:38;9.30;74.00
71142;DHT22;58808;59.366;17.970;2023-10-08T15:44:05;9.20;74.50
71142;DHT22;58808;59.366;17.970;2023-10-08T15:46:34;9.20;74.50
71142;DHT22;58808;59.366;17.970;2023-10-08T15:49:03;9.20;74.70
71142;DHT22;58808;59.366;17.970;2023-10-08T15:51:32;9.20;75.00
71142;DHT22;58808;59.366;17.970;2023-10-08T15:53:58;9.10;75.60
71142;DHT22;58808;59.366;17.970;2023-10-08T15:56:27;9.00;75.20
71142;DHT22;58808;59.366;17.970;2023-10-08T15:58:53;9.00;75.80
71142;DHT22;58808;59.366;17.970;2023-10-08T16:01:19;9.00;76.30
71142;DHT22;58808;59.366;17.970;2023-10-08T16:03:45;8.90;76.50
71142;DHT22;58808;59.366;17.970;2023-10-08T16:06:11;8.90;77.40
71142;DHT22;58808;59.366;17.970;2023-10-08T16:08:36;8.90;77.30
71142;DHT22;58808;59.366;17.970;2023-10-08T16:11:02;8.80;77.70